Livingston, New Jersey
Current Conditions -  °F | °C
As of 10:53 AM on Friday 28 Nov 2014 (Local Time) from KCDW Reporting Station
Scattered Clouds Scattered Clouds  
Wind Chill: 29°   Ceiling: Unl
Heat Index: 34°   Visibility: 10mi
Dew Point: 20°   Wind: 6mph
Humidity: 56%   Direction: NA
Pressure: 30.19"   Gusts: NA
Location:  40.78°N, 74.32°W
Report Text: KCDW 281553Z AUTO VRB05KT 10SM SCT035 01/M07 A3019 RMK AO2 SLP230 T00111067 TSNO
Loading
Personal Weather Stations






























Interactive Weather Map New forecast layout! Learn more

10-Day Weather Forecast

Advertisements
Track Severe Weather on mobile